AKX5562 RJGG-RJTT
Flight info
| Callsign | AKX5562 |
|---|---|
| Flight time | 0h 36m |
| Altitude | 21000 |
| Route | BOGON Y23 ARTIC Y71 XAC |
| Aircraft | B738/M-SDE2FGILORVWXY/L |
Departure
| Time | 2026-05-06 12:56 |
|---|---|
| Airport | Chubu Centrair International Airport (RJGG) |
Arrival
| Time | 2026-05-06 13:32 |
|---|---|
| Airport | Tokyo Haneda International Airport (RJTT) |
| Time | Latitude | Longitude | Altitude | Speed | Heading |
|---|---|---|---|---|---|
| 2026-05-06 12:29 | 34.85507 | 136.81070 | 27 ft | 0 kts | 168° |
| 2026-05-06 12:44 | 34.85515 | 136.81068 | 27 ft | 3 kts | 169° |
| 2026-05-06 12:45 | 34.85534 | 136.81064 | 27 ft | 3 kts | 175° |
| 2026-05-06 12:45 | 34.85555 | 136.81063 | 27 ft | 3 kts | 183° |
| 2026-05-06 12:45 | 34.85591 | 136.81076 | 27 ft | 3 kts | 231° |
| 2026-05-06 12:46 | 34.85597 | 136.81088 | 27 ft | 1 kts | 259° |
| 2026-05-06 12:46 | 34.85598 | 136.81093 | 27 ft | 0 kts | 259° |
| 2026-05-06 12:50 | 34.85598 | 136.81092 | 27 ft | 0 kts | 259° |
| 2026-05-06 12:50 | 34.85596 | 136.81083 | 27 ft | 4 kts | 259° |
| 2026-05-06 12:50 | 34.85582 | 136.81006 | 27 ft | 12 kts | 249° |
| 2026-05-06 12:51 | 34.85507 | 136.80973 | 27 ft | 13 kts | 170° |
| 2026-05-06 12:51 | 34.85404 | 136.80997 | 27 ft | 17 kts | 168° |
| 2026-05-06 12:51 | 34.85280 | 136.81027 | 27 ft | 20 kts | 169° |
| 2026-05-06 12:51 | 34.85126 | 136.81065 | 27 ft | 24 kts | 168° |
| 2026-05-06 12:52 | 34.84958 | 136.81107 | 27 ft | 25 kts | 169° |
| 2026-05-06 12:52 | 34.84796 | 136.81145 | 27 ft | 23 kts | 169° |
| 2026-05-06 12:52 | 34.84642 | 136.81182 | 27 ft | 22 kts | 168° |
| 2026-05-06 12:52 | 34.84492 | 136.81219 | 27 ft | 22 kts | 168° |
| 2026-05-06 12:53 | 34.84387 | 136.81232 | 27 ft | 9 kts | 195° |
| 2026-05-06 12:53 | 34.84350 | 136.81169 | 27 ft | 10 kts | 255° |
| 2026-05-06 12:53 | 34.84334 | 136.81074 | 27 ft | 13 kts | 259° |
| 2026-05-06 12:53 | 34.84330 | 136.81046 | 26 ft | 0 kts | 259° |
| 2026-05-06 12:55 | 34.84324 | 136.81010 | 27 ft | 10 kts | 259° |
| 2026-05-06 12:55 | 34.84330 | 136.80907 | 26 ft | 12 kts | 315° |
| 2026-05-06 12:55 | 34.84379 | 136.80886 | 25 ft | 0 kts | 349° |
| 2026-05-06 12:55 | 34.84385 | 136.80885 | 26 ft | 9 kts | 348° |
| 2026-05-06 12:56 | 34.84746 | 136.80798 | 28 ft | 97 kts | 349° |
| 2026-05-06 12:56 | 34.85631 | 136.80589 | 222 ft | 147 kts | 349° |
| 2026-05-06 12:56 | 34.86596 | 136.80370 | 1147 ft | 141 kts | 347° |
| 2026-05-06 12:56 | 34.87565 | 136.79847 | 1818 ft | 159 kts | 318° |
| 2026-05-06 12:57 | 34.88100 | 136.78666 | 2651 ft | 163 kts | 277° |
| 2026-05-06 12:57 | 34.87897 | 136.77358 | 3552 ft | 163 kts | 235° |
| 2026-05-06 12:57 | 34.87088 | 136.76249 | 4056 ft | 191 kts | 226° |
| 2026-05-06 12:57 | 34.86123 | 136.74964 | 4374 ft | 219 kts | 226° |
| 2026-05-06 12:58 | 34.85053 | 136.73523 | 4739 ft | 241 kts | 227° |
| 2026-05-06 12:58 | 34.83775 | 136.72058 | 5074 ft | 261 kts | 210° |
| 2026-05-06 12:58 | 34.82034 | 136.71447 | 5986 ft | 265 kts | 181° |
| 2026-05-06 12:58 | 34.80206 | 136.71738 | 7030 ft | 267 kts | 171° |
| 2026-05-06 12:59 | 34.78360 | 136.72192 | 7953 ft | 274 kts | 169° |
| 2026-05-06 12:59 | 34.76591 | 136.73153 | 8878 ft | 286 kts | 145° |
| 2026-05-06 12:59 | 34.75254 | 136.74986 | 9884 ft | 297 kts | 124° |
| 2026-05-06 12:59 | 34.74200 | 136.77212 | 10600 ft | 315 kts | 121° |
| 2026-05-06 13:00 | 34.73114 | 136.79656 | 11047 ft | 338 kts | 120° |
| 2026-05-06 13:00 | 34.72373 | 136.81340 | 11573 ft | 344 kts | 120° |
| 2026-05-06 13:00 | 34.71226 | 136.83917 | 12530 ft | 349 kts | 121° |
| 2026-05-06 13:00 | 34.70048 | 136.86515 | 13533 ft | 353 kts | 121° |
| 2026-05-06 13:01 | 34.68844 | 136.89144 | 14459 ft | 359 kts | 122° |
| 2026-05-06 13:01 | 34.67708 | 136.91881 | 15324 ft | 369 kts | 111° |
| 2026-05-06 13:01 | 34.67201 | 136.94966 | 16240 ft | 377 kts | 100° |
| 2026-05-06 13:01 | 34.66844 | 136.98152 | 17137 ft | 383 kts | 99° |
| 2026-05-06 13:02 | 34.66499 | 137.01393 | 18003 ft | 391 kts | 99° |
| 2026-05-06 13:02 | 34.66145 | 137.04692 | 18791 ft | 398 kts | 99° |
| 2026-05-06 13:02 | 34.65773 | 137.08051 | 19495 ft | 406 kts | 100° |
| 2026-05-06 13:02 | 34.65383 | 137.11489 | 20166 ft | 415 kts | 101° |
| 2026-05-06 13:03 | 34.64978 | 137.14992 | 20810 ft | 423 kts | 102° |
| 2026-05-06 13:03 | 34.64563 | 137.18552 | 21085 ft | 427 kts | 102° |
| 2026-05-06 13:03 | 34.64139 | 137.22169 | 21123 ft | 438 kts | 102° |
| 2026-05-06 13:03 | 34.63707 | 137.25864 | 21125 ft | 441 kts | 102° |
| 2026-05-06 13:04 | 34.63283 | 137.29497 | 21122 ft | 439 kts | 102° |
| 2026-05-06 13:04 | 34.62852 | 137.33158 | 21118 ft | 438 kts | 102° |
| 2026-05-06 13:04 | 34.62389 | 137.36809 | 21121 ft | 436 kts | 106° |
| 2026-05-06 13:04 | 34.61419 | 137.40235 | 21130 ft | 427 kts | 119° |
| 2026-05-06 13:05 | 34.60185 | 137.43516 | 21120 ft | 426 kts | 121° |
| 2026-05-06 13:05 | 34.58925 | 137.46787 | 21118 ft | 427 kts | 121° |
| 2026-05-06 13:05 | 34.57691 | 137.50060 | 21119 ft | 427 kts | 120° |
| 2026-05-06 13:05 | 34.56481 | 137.53356 | 21121 ft | 428 kts | 120° |
| 2026-05-06 13:06 | 34.55278 | 137.56670 | 21121 ft | 428 kts | 120° |
| 2026-05-06 13:06 | 34.54300 | 137.60102 | 21105 ft | 437 kts | 104° |
| 2026-05-06 13:06 | 34.54106 | 137.63795 | 21134 ft | 442 kts | 94° |
| 2026-05-06 13:06 | 34.54123 | 137.67581 | 21147 ft | 458 kts | 92° |
| 2026-05-06 13:07 | 34.54177 | 137.71520 | 21144 ft | 475 kts | 92° |
| 2026-05-06 13:07 | 34.54400 | 137.75582 | 21133 ft | 490 kts | 85° |
| 2026-05-06 13:07 | 34.54929 | 137.79702 | 21136 ft | 497 kts | 82° |
| 2026-05-06 13:07 | 34.55537 | 137.83821 | 21123 ft | 493 kts | 82° |
| 2026-05-06 13:08 | 34.56162 | 137.87902 | 21119 ft | 491 kts | 81° |
| 2026-05-06 13:08 | 34.56780 | 137.91974 | 21122 ft | 491 kts | 82° |
| 2026-05-06 13:08 | 34.57381 | 137.96050 | 21127 ft | 491 kts | 82° |
| 2026-05-06 13:08 | 34.57968 | 138.00142 | 21131 ft | 492 kts | 82° |
| 2026-05-06 13:09 | 34.58545 | 138.04247 | 21131 ft | 493 kts | 83° |
| 2026-05-06 13:09 | 34.59115 | 138.08354 | 21136 ft | 494 kts | 83° |
| 2026-05-06 13:09 | 34.59675 | 138.12418 | 21132 ft | 495 kts | 83° |
| 2026-05-06 13:09 | 34.60241 | 138.16542 | 21129 ft | 496 kts | 83° |
| 2026-05-06 13:10 | 34.60808 | 138.20672 | 21132 ft | 496 kts | 83° |
| 2026-05-06 13:10 | 34.61375 | 138.24813 | 21130 ft | 496 kts | 83° |
| 2026-05-06 13:10 | 34.61941 | 138.28948 | 21132 ft | 497 kts | 83° |
| 2026-05-06 13:10 | 34.62504 | 138.33075 | 21133 ft | 497 kts | 83° |
| 2026-05-06 13:11 | 34.63070 | 138.37222 | 21134 ft | 497 kts | 83° |
| 2026-05-06 13:11 | 34.63634 | 138.41370 | 21135 ft | 498 kts | 83° |
| 2026-05-06 13:11 | 34.64196 | 138.45521 | 21136 ft | 498 kts | 83° |
| 2026-05-06 13:11 | 34.64757 | 138.49667 | 21134 ft | 499 kts | 83° |
| 2026-05-06 13:12 | 34.65317 | 138.53819 | 21136 ft | 499 kts | 83° |
| 2026-05-06 13:12 | 34.65877 | 138.57984 | 21138 ft | 499 kts | 83° |
| 2026-05-06 13:12 | 34.66436 | 138.62151 | 21139 ft | 500 kts | 83° |
| 2026-05-06 13:12 | 34.66994 | 138.66320 | 21139 ft | 500 kts | 83° |
| 2026-05-06 13:13 | 34.67550 | 138.70483 | 21140 ft | 500 kts | 83° |
| 2026-05-06 13:13 | 34.68106 | 138.74657 | 21142 ft | 500 kts | 83° |
| 2026-05-06 13:13 | 34.68654 | 138.78774 | 21147 ft | 500 kts | 83° |
| 2026-05-06 13:13 | 34.69208 | 138.82951 | 21151 ft | 501 kts | 83° |
| 2026-05-06 13:14 | 34.69762 | 138.87135 | 21148 ft | 501 kts | 83° |
| 2026-05-06 13:14 | 34.70322 | 138.91363 | 21139 ft | 501 kts | 83° |
| 2026-05-06 13:14 | 34.70863 | 138.95473 | 21147 ft | 500 kts | 84° |
| 2026-05-06 13:14 | 34.71386 | 138.99623 | 21130 ft | 487 kts | 86° |
| 2026-05-06 13:15 | 34.71570 | 139.03611 | 21139 ft | 460 kts | 94° |
| 2026-05-06 13:15 | 34.71540 | 139.07436 | 21134 ft | 449 kts | 95° |
| 2026-05-06 13:15 | 34.71478 | 139.11217 | 21144 ft | 447 kts | 96° |
| 2026-05-06 13:15 | 34.71418 | 139.14991 | 21038 ft | 447 kts | 95° |
| 2026-05-06 13:16 | 34.71372 | 139.18775 | 20530 ft | 445 kts | 95° |
| 2026-05-06 13:16 | 34.71342 | 139.22522 | 19951 ft | 441 kts | 95° |
| 2026-05-06 13:16 | 34.71320 | 139.26235 | 19372 ft | 436 kts | 94° |
| 2026-05-06 13:16 | 34.71303 | 139.29898 | 18785 ft | 431 kts | 95° |
| 2026-05-06 13:17 | 34.71278 | 139.33527 | 18139 ft | 428 kts | 95° |
| 2026-05-06 13:17 | 34.71479 | 139.37103 | 17760 ft | 421 kts | 81° |
| 2026-05-06 13:17 | 34.72409 | 139.40434 | 17532 ft | 415 kts | 65° |
| 2026-05-06 13:17 | 34.73899 | 139.43436 | 17266 ft | 415 kts | 52° |
| 2026-05-06 13:18 | 34.75800 | 139.46049 | 17008 ft | 411 kts | 46° |
| 2026-05-06 13:18 | 34.77749 | 139.48584 | 16778 ft | 409 kts | 45° |
| 2026-05-06 13:18 | 34.79692 | 139.51101 | 16514 ft | 407 kts | 45° |
| 2026-05-06 13:18 | 34.81622 | 139.53612 | 15962 ft | 404 kts | 45° |
| 2026-05-06 13:19 | 34.83526 | 139.56105 | 15415 ft | 399 kts | 45° |
| 2026-05-06 13:19 | 34.85398 | 139.58569 | 14849 ft | 395 kts | 45° |
| 2026-05-06 13:19 | 34.87255 | 139.61022 | 14297 ft | 391 kts | 46° |
| 2026-05-06 13:19 | 34.89088 | 139.63450 | 13675 ft | 388 kts | 46° |
| 2026-05-06 13:20 | 34.90911 | 139.65866 | 12995 ft | 386 kts | 46° |
| 2026-05-06 13:20 | 34.92715 | 139.68261 | 12399 ft | 381 kts | 46° |
| 2026-05-06 13:20 | 34.94491 | 139.70618 | 11825 ft | 376 kts | 46° |
| 2026-05-06 13:20 | 34.96246 | 139.72951 | 11271 ft | 371 kts | 47° |
| 2026-05-06 13:21 | 34.97978 | 139.75254 | 10726 ft | 367 kts | 47° |
| 2026-05-06 13:21 | 34.99679 | 139.77516 | 10470 ft | 354 kts | 47° |
| 2026-05-06 13:21 | 35.01309 | 139.79685 | 10317 ft | 340 kts | 47° |
| 2026-05-06 13:21 | 35.02873 | 139.81767 | 10168 ft | 327 kts | 47° |
| 2026-05-06 13:22 | 35.04383 | 139.83778 | 10028 ft | 315 kts | 47° |
| 2026-05-06 13:22 | 35.05851 | 139.85734 | 9698 ft | 311 kts | 47° |
| 2026-05-06 13:22 | 35.07290 | 139.87651 | 9355 ft | 309 kts | 47° |
| 2026-05-06 13:22 | 35.08731 | 139.89572 | 9010 ft | 306 kts | 47° |
| 2026-05-06 13:23 | 35.10165 | 139.91485 | 8709 ft | 303 kts | 47° |
| 2026-05-06 13:23 | 35.11567 | 139.93360 | 8509 ft | 296 kts | 47° |
| 2026-05-06 13:23 | 35.12947 | 139.95208 | 8185 ft | 294 kts | 47° |
| 2026-05-06 13:23 | 35.14386 | 139.96977 | 7820 ft | 293 kts | 34° |
| 2026-05-06 13:24 | 35.16221 | 139.97962 | 7499 ft | 286 kts | 8° |
| 2026-05-06 13:24 | 35.18178 | 139.98139 | 7199 ft | 280 kts | 358° |
| 2026-05-06 13:24 | 35.20104 | 139.98185 | 6877 ft | 273 kts | 358° |
| 2026-05-06 13:24 | 35.21966 | 139.98232 | 6678 ft | 263 kts | 358° |
| 2026-05-06 13:25 | 35.23578 | 139.98280 | 6440 ft | 256 kts | 358° |
| 2026-05-06 13:25 | 35.25298 | 139.98321 | 6188 ft | 247 kts | 353° |
| 2026-05-06 13:25 | 35.26832 | 139.97699 | 5945 ft | 229 kts | 324° |
| 2026-05-06 13:25 | 35.28141 | 139.96703 | 5710 ft | 215 kts | 324° |
| 2026-05-06 13:26 | 35.29398 | 139.95784 | 5463 ft | 207 kts | 324° |
| 2026-05-06 13:26 | 35.30567 | 139.94946 | 5238 ft | 200 kts | 325° |
| 2026-05-06 13:26 | 35.31523 | 139.94271 | 5056 ft | 198 kts | 325° |
| 2026-05-06 13:26 | 35.32716 | 139.93431 | 4841 ft | 199 kts | 325° |
| 2026-05-06 13:27 | 35.33942 | 139.92594 | 4441 ft | 206 kts | 327° |
| 2026-05-06 13:27 | 35.34917 | 139.91931 | 4224 ft | 202 kts | 327° |
| 2026-05-06 13:27 | 35.36129 | 139.91084 | 3938 ft | 199 kts | 325° |
| 2026-05-06 13:27 | 35.37316 | 139.90241 | 3682 ft | 197 kts | 325° |
| 2026-05-06 13:28 | 35.38352 | 139.89501 | 3450 ft | 195 kts | 325° |
| 2026-05-06 13:28 | 35.39529 | 139.88659 | 3191 ft | 196 kts | 325° |
| 2026-05-06 13:28 | 35.40701 | 139.87822 | 2941 ft | 195 kts | 326° |
| 2026-05-06 13:28 | 35.41724 | 139.87092 | 2722 ft | 193 kts | 325° |
| 2026-05-06 13:29 | 35.42855 | 139.86284 | 2463 ft | 183 kts | 326° |
| 2026-05-06 13:29 | 35.43922 | 139.85523 | 2226 ft | 173 kts | 325° |
| 2026-05-06 13:29 | 35.44957 | 139.84783 | 1999 ft | 173 kts | 326° |
| 2026-05-06 13:29 | 35.45990 | 139.84044 | 1771 ft | 174 kts | 326° |
| 2026-05-06 13:30 | 35.47029 | 139.83301 | 1538 ft | 173 kts | 326° |
| 2026-05-06 13:30 | 35.48044 | 139.82579 | 1297 ft | 164 kts | 326° |
| 2026-05-06 13:30 | 35.49002 | 139.81895 | 1081 ft | 156 kts | 326° |
| 2026-05-06 13:30 | 35.49903 | 139.81251 | 917 ft | 142 kts | 327° |
| 2026-05-06 13:31 | 35.50645 | 139.80721 | 736 ft | 139 kts | 328° |
| 2026-05-06 13:31 | 35.51486 | 139.80127 | 618 ft | 141 kts | 328° |
| 2026-05-06 13:31 | 35.52347 | 139.79509 | 385 ft | 143 kts | 330° |
| 2026-05-06 13:31 | 35.53191 | 139.78905 | 183 ft | 138 kts | 330° |
| 2026-05-06 13:32 | 35.54022 | 139.78316 | 27 ft | 135 kts | 329° |
| 2026-05-06 13:32 | 35.54670 | 139.77850 | 21 ft | 73 kts | 330° |
| 2026-05-06 13:32 | 35.54972 | 139.77660 | 20 ft | 29 kts | 342° |
| 2026-05-06 13:32 | 35.55124 | 139.77629 | 19 ft | 13 kts | 359° |
| 2026-05-06 13:33 | 35.55191 | 139.77684 | 21 ft | 12 kts | 74° |
| 2026-05-06 13:33 | 35.55149 | 139.77765 | 21 ft | 12 kts | 148° |
| 2026-05-06 13:33 | 35.55060 | 139.77828 | 21 ft | 19 kts | 150° |
| 2026-05-06 13:33 | 35.54924 | 139.77925 | 22 ft | 25 kts | 150° |
| 2026-05-06 13:34 | 35.54773 | 139.78032 | 21 ft | 24 kts | 150° |
| 2026-05-06 13:34 | 35.54632 | 139.78132 | 21 ft | 23 kts | 150° |
| 2026-05-06 13:34 | 35.54495 | 139.78230 | 22 ft | 24 kts | 150° |
| 2026-05-06 13:34 | 35.54343 | 139.78337 | 20 ft | 27 kts | 150° |
| 2026-05-06 13:35 | 35.54185 | 139.78450 | 21 ft | 26 kts | 150° |
| 2026-05-06 13:35 | 35.54027 | 139.78562 | 20 ft | 25 kts | 150° |
| 2026-05-06 13:35 | 35.53882 | 139.78665 | 21 ft | 21 kts | 150° |
| 2026-05-06 13:35 | 35.53791 | 139.78735 | 22 ft | 10 kts | 132° |
| 2026-05-06 13:36 | 35.53786 | 139.78822 | 19 ft | 12 kts | 90° |
| 2026-05-06 13:36 | 35.53734 | 139.78897 | 20 ft | 13 kts | 149° |
| 2026-05-06 13:36 | 35.53655 | 139.78953 | 18 ft | 11 kts | 150° |
| 2026-05-06 13:36 | 35.53632 | 139.79003 | 18 ft | 7 kts | 74° |
| 2026-05-06 13:37 | 35.53653 | 139.79053 | 19 ft | 7 kts | 60° |
| 2026-05-06 13:37 | 35.53663 | 139.79074 | 20 ft | 0 kts | 60° |